sensor_id;sensor_type;location;lat;lon;timestamp;pressure;altitude;pressure_sealevel;temperature;humidity
51299;BME280;37382;45.192;9.790;2024-01-30T00:00:36;103383.13;;;1.85;100.00
51299;BME280;37382;45.192;9.790;2024-01-30T00:03:04;103385.13;;;1.80;100.00
51299;BME280;37382;45.192;9.790;2024-01-30T00:05:32;103383.63;;;1.74;100.00
51299;BME280;37382;45.192;9.790;2024-01-30T00:07:59;103376.34;;;1.58;100.00
51299;BME280;37382;45.192;9.790;2024-01-30T00:10:26;103377.16;;;1.78;100.00
51299;BME280;37382;45.192;9.790;2024-01-30T00:12:54;103377.53;;;1.70;100.00
51299;BME280;37382;45.192;9.790;2024-01-30T00:15:21;103374.66;;;1.18;100.00
51299;BME280;37382;45.192;9.790;2024-01-30T00:17:49;103370.16;;;1.18;100.00
51299;BME280;37382;45.192;9.790;2024-01-30T00:20:16;103363.78;;;1.21;100.00
51299;BME280;37382;45.192;9.790;2024-01-30T00:22:43;103368.63;;;1.13;100.00
51299;BME280;37382;45.192;9.790;2024-01-30T00:25:11;103369.44;;;0.75;100.00
51299;BME280;37382;45.192;9.790;2024-01-30T00:27:40;103374.72;;;1.16;100.00
51299;BME280;37382;45.192;9.790;2024-01-30T00:30:07;103377.69;;;1.29;100.00
51299;BME280;37382;45.192;9.790;2024-01-30T00:32:35;103381.50;;;0.85;100.00
51299;BME280;37382;45.192;9.790;2024-01-30T00:35:03;103379.56;;;1.08;100.00
51299;BME280;37382;45.192;9.790;2024-01-30T00:37:30;103378.34;;;0.76;100.00
51299;BME280;37382;45.192;9.790;2024-01-30T00:39:59;103380.31;;;0.72;100.00
51299;BME280;37382;45.192;9.790;2024-01-30T00:42:26;103369.78;;;0.67;100.00
51299;BME280;37382;45.192;9.790;2024-01-30T00:44:54;103372.41;;;0.69;100.00
51299;BME280;37382;45.192;9.790;2024-01-30T00:47:21;103372.50;;;0.86;100.00
51299;BME280;37382;45.192;9.790;2024-01-30T00:49:48;103367.97;;;0.88;100.00
51299;BME280;37382;45.192;9.790;2024-01-30T00:52:16;103368.53;;;0.76;100.00
51299;BME280;37382;45.192;9.790;2024-01-30T00:54:44;103362.09;;;0.99;100.00
51299;BME280;37382;45.192;9.790;2024-01-30T00:57:11;103369.97;;;0.83;100.00
51299;BME280;37382;45.192;9.790;2024-01-30T00:59:39;103373.19;;;0.71;100.00
51299;BME280;37382;45.192;9.790;2024-01-30T01:02:06;103373.81;;;0.78;100.00
51299;BME280;37382;45.192;9.790;2024-01-30T01:04:33;103376.56;;;0.76;100.00
51299;BME280;37382;45.192;9.790;2024-01-30T01:07:01;103368.03;;;0.66;100.00
51299;BME280;37382;45.192;9.790;2024-01-30T01:09:28;103369.09;;;0.62;100.00
51299;BME280;37382;45.192;9.790;2024-01-30T01:11:55;103377.88;;;0.45;100.00
51299;BME280;37382;45.192;9.790;2024-01-30T01:14:24;103375.88;;;0.30;100.00
51299;BME280;37382;45.192;9.790;2024-01-30T01:16:51;103373.00;;;0.34;100.00
51299;BME280;37382;45.192;9.790;2024-01-30T01:19:18;103373.38;;;0.25;100.00
51299;BME280;37382;45.192;9.790;2024-01-30T01:21:46;103366.59;;;0.16;100.00
51299;BME280;37382;45.192;9.790;2024-01-30T01:24:14;103368.91;;;0.46;100.00
51299;BME280;37382;45.192;9.790;2024-01-30T01:26:41;103373.78;;;0.37;100.00
51299;BME280;37382;45.192;9.790;2024-01-30T01:29:08;103374.47;;;0.42;100.00
51299;BME280;37382;45.192;9.790;2024-01-30T01:31:39;103367.78;;;0.31;100.00
51299;BME280;37382;45.192;9.790;2024-01-30T01:34:10;103372.31;;;0.50;100.00
51299;BME280;37382;45.192;9.790;2024-01-30T01:36:39;103366.16;;;0.27;100.00
51299;BME280;37382;45.192;9.790;2024-01-30T01:39:06;103368.88;;;0.05;100.00
51299;BME280;37382;45.192;9.790;2024-01-30T01:41:34;103364.97;;;0.34;100.00
51299;BME280;37382;45.192;9.790;2024-01-30T01:44:01;103360.66;;;0.10;100.00
51299;BME280;37382;45.192;9.790;2024-01-30T01:46:32;103364.75;;;0.19;100.00
51299;BME280;37382;45.192;9.790;2024-01-30T01:49:01;103361.41;;;0.34;100.00
51299;BME280;37382;45.192;9.790;2024-01-30T01:51:31;103366.97;;;0.70;100.00
51299;BME280;37382;45.192;9.790;2024-01-30T01:54:01;103358.22;;;0.46;100.00
51299;BME280;37382;45.192;9.790;2024-01-30T01:56:31;103359.47;;;0.17;100.00
51299;BME280;37382;45.192;9.790;2024-01-30T01:59:05;103349.56;;;0.19;100.00
51299;BME280;37382;45.192;9.790;2024-01-30T02:01:36;103359.78;;;0.09;100.00
51299;BME280;37382;45.192;9.790;2024-01-30T02:04:04;103360.06;;;0.03;100.00
51299;BME280;37382;45.192;9.790;2024-01-30T02:06:33;103363.06;;;0.16;100.00
51299;BME280;37382;45.192;9.790;2024-01-30T02:09:01;103365.50;;;0.22;100.00
51299;BME280;37382;45.192;9.790;2024-01-30T02:11:29;103371.09;;;-0.06;100.00
51299;BME280;37382;45.192;9.790;2024-01-30T02:13:56;103365.75;;;0.16;100.00
51299;BME280;37382;45.192;9.790;2024-01-30T02:16:24;103369.34;;;0.15;100.00
51299;BME280;37382;45.192;9.790;2024-01-30T02:18:51;103368.50;;;0.35;100.00
51299;BME280;37382;45.192;9.790;2024-01-30T02:21:19;103360.22;;;-0.02;100.00
51299;BME280;37382;45.192;9.790;2024-01-30T02:23:47;103366.31;;;0.45;100.00
51299;BME280;37382;45.192;9.790;2024-01-30T02:26:15;103367.31;;;0.22;100.00
51299;BME280;37382;45.192;9.790;2024-01-30T02:28:43;103368.31;;;0.60;100.00
51299;BME280;37382;45.192;9.790;2024-01-30T02:31:10;103361.53;;;0.51;100.00
51299;BME280;37382;45.192;9.790;2024-01-30T02:33:38;103364.63;;;0.42;100.00
51299;BME280;37382;45.192;9.790;2024-01-30T02:36:06;103373.94;;;0.54;100.00
51299;BME280;37382;45.192;9.790;2024-01-30T02:38:33;103371.81;;;0.42;100.00
51299;BME280;37382;45.192;9.790;2024-01-30T02:41:00;103375.34;;;0.63;100.00
51299;BME280;37382;45.192;9.790;2024-01-30T02:43:28;103376.75;;;0.51;100.00
51299;BME280;37382;45.192;9.790;2024-01-30T02:45:55;103368.84;;;0.48;100.00
51299;BME280;37382;45.192;9.790;2024-01-30T02:48:22;103365.34;;;0.87;100.00
51299;BME280;37382;45.192;9.790;2024-01-30T02:50:50;103365.84;;;0.76;100.00
51299;BME280;37382;45.192;9.790;2024-01-30T02:53:17;103370.84;;;0.84;100.00
51299;BME280;37382;45.192;9.790;2024-01-30T02:55:44;103368.69;;;0.71;100.00
51299;BME280;37382;45.192;9.790;2024-01-30T02:58:13;103366.16;;;0.48;100.00
51299;BME280;37382;45.192;9.790;2024-01-30T03:00:40;103363.59;;;0.24;100.00
51299;BME280;37382;45.192;9.790;2024-01-30T03:03:07;103363.34;;;0.30;100.00
51299;BME280;37382;45.192;9.790;2024-01-30T03:05:35;103369.59;;;0.31;100.00
51299;BME280;37382;45.192;9.790;2024-01-30T03:08:04;103362.28;;;0.34;100.00
51299;BME280;37382;45.192;9.790;2024-01-30T03:10:31;103358.34;;;0.43;100.00
51299;BME280;37382;45.192;9.790;2024-01-30T03:12:59;103355.25;;;0.32;100.00
51299;BME280;37382;45.192;9.790;2024-01-30T03:15:27;103353.19;;;0.39;100.00
51299;BME280;37382;45.192;9.790;2024-01-30T03:17:54;103363.53;;;0.67;100.00
51299;BME280;37382;45.192;9.790;2024-01-30T03:20:22;103366.31;;;0.45;100.00
51299;BME280;37382;45.192;9.790;2024-01-30T03:22:49;103364.09;;;0.34;100.00
51299;BME280;37382;45.192;9.790;2024-01-30T03:25:16;103359.81;;;0.30;100.00
51299;BME280;37382;45.192;9.790;2024-01-30T03:27:43;103358.19;;;0.05;100.00
51299;BME280;37382;45.192;9.790;2024-01-30T03:30:11;103354.75;;;0.02;100.00
51299;BME280;37382;45.192;9.790;2024-01-30T03:32:39;103358.50;;;-0.03;100.00
51299;BME280;37382;45.192;9.790;2024-01-30T03:35:06;103359.41;;;-0.04;100.00
51299;BME280;37382;45.192;9.790;2024-01-30T03:37:34;103362.41;;;0.11;100.00
51299;BME280;37382;45.192;9.790;2024-01-30T03:40:02;103361.75;;;-0.16;100.00
51299;BME280;37382;45.192;9.790;2024-01-30T03:42:30;103361.56;;;-0.12;100.00
51299;BME280;37382;45.192;9.790;2024-01-30T03:44:57;103349.28;;;0.05;100.00
51299;BME280;37382;45.192;9.790;2024-01-30T03:47:25;103355.69;;;0.01;100.00
51299;BME280;37382;45.192;9.790;2024-01-30T03:49:52;103359.81;;;-0.35;100.00
51299;BME280;37382;45.192;9.790;2024-01-30T03:52:20;103355.59;;;-0.41;100.00
51299;BME280;37382;45.192;9.790;2024-01-30T03:54:47;103353.16;;;-0.25;100.00
51299;BME280;37382;45.192;9.790;2024-01-30T03:57:15;103357.50;;;-0.22;100.00
51299;BME280;37382;45.192;9.790;2024-01-30T03:59:42;103355.81;;;-0.47;100.00
51299;BME280;37382;45.192;9.790;2024-01-30T04:02:11;103354.88;;;-0.46;100.00
51299;BME280;37382;45.192;9.790;2024-01-30T04:04:39;103356.25;;;-0.36;100.00
51299;BME280;37382;45.192;9.790;2024-01-30T04:07:07;103352.97;;;-0.42;100.00
51299;BME280;37382;45.192;9.790;2024-01-30T04:09:34;103354.28;;;-0.30;100.00
51299;BME280;37382;45.192;9.790;2024-01-30T04:12:02;103358.69;;;-0.29;100.00
51299;BME280;37382;45.192;9.790;2024-01-30T04:14:30;103344.75;;;-0.15;100.00
51299;BME280;37382;45.192;9.790;2024-01-30T04:16:57;103353.59;;;-0.13;100.00
51299;BME280;37382;45.192;9.790;2024-01-30T04:19:25;103342.44;;;-0.03;100.00
51299;BME280;37382;45.192;9.790;2024-01-30T04:21:52;103343.22;;;-0.21;100.00
51299;BME280;37382;45.192;9.790;2024-01-30T04:24:20;103344.06;;;-0.21;100.00
51299;BME280;37382;45.192;9.790;2024-01-30T04:26:47;103341.31;;;-0.41;100.00
51299;BME280;37382;45.192;9.790;2024-01-30T04:29:14;103341.72;;;-0.28;100.00
51299;BME280;37382;45.192;9.790;2024-01-30T04:31:42;103343.19;;;-0.43;100.00
51299;BME280;37382;45.192;9.790;2024-01-30T04:34:09;103355.09;;;-0.28;100.00
51299;BME280;37382;45.192;9.790;2024-01-30T04:36:37;103342.34;;;-0.67;100.00
51299;BME280;37382;45.192;9.790;2024-01-30T04:39:04;103348.84;;;-0.73;100.00
51299;BME280;37382;45.192;9.790;2024-01-30T04:41:31;103343.19;;;-0.43;100.00
51299;BME280;37382;45.192;9.790;2024-01-30T04:43:59;103347.75;;;-0.69;100.00
51299;BME280;37382;45.192;9.790;2024-01-30T04:46:26;103347.88;;;-0.72;100.00
51299;BME280;37382;45.192;9.790;2024-01-30T04:48:54;103349.69;;;-0.96;100.00
51299;BME280;37382;45.192;9.790;2024-01-30T04:51:21;103333.97;;;-0.80;100.00
51299;BME280;37382;45.192;9.790;2024-01-30T04:53:49;103339.69;;;-0.67;100.00
51299;BME280;37382;45.192;9.790;2024-01-30T04:56:16;103340.97;;;-0.32;100.00
51299;BME280;37382;45.192;9.790;2024-01-30T04:58:44;103344.59;;;-0.12;100.00
51299;BME280;37382;45.192;9.790;2024-01-30T05:01:15;103340.72;;;-0.48;100.00
51299;BME280;37382;45.192;9.790;2024-01-30T05:03:43;103344.75;;;-0.38;100.00
51299;BME280;37382;45.192;9.790;2024-01-30T05:06:11;103338.28;;;-0.54;100.00
51299;BME280;37382;45.192;9.790;2024-01-30T05:08:38;103338.63;;;-0.41;100.00
51299;BME280;37382;45.192;9.790;2024-01-30T05:11:06;103338.72;;;-0.43;100.00
51299;BME280;37382;45.192;9.790;2024-01-30T05:13:33;103341.16;;;-0.37;100.00
51299;BME280;37382;45.192;9.790;2024-01-30T05:16:02;103333.22;;;-0.62;100.00
51299;BME280;37382;45.192;9.790;2024-01-30T05:18:31;103343.50;;;-0.73;100.00
51299;BME280;37382;45.192;9.790;2024-01-30T05:20:58;103349.94;;;-0.79;100.00
51299;BME280;37382;45.192;9.790;2024-01-30T05:23:26;103341.22;;;-0.84;100.00
51299;BME280;37382;45.192;9.790;2024-01-30T05:25:54;103354.50;;;-0.82;100.00
51299;BME280;37382;45.192;9.790;2024-01-30T05:28:21;103346.06;;;-0.48;100.00
51299;BME280;37382;45.192;9.790;2024-01-30T05:30:49;103348.84;;;-0.51;100.00
51299;BME280;37382;45.192;9.790;2024-01-30T05:33:16;103357.25;;;-0.84;100.00
51299;BME280;37382;45.192;9.790;2024-01-30T05:35:44;103350.44;;;-0.69;100.00
51299;BME280;37382;45.192;9.790;2024-01-30T05:38:11;103354.81;;;-0.90;100.00
51299;BME280;37382;45.192;9.790;2024-01-30T05:40:39;103353.16;;;-0.70;100.00
51299;BME280;37382;45.192;9.790;2024-01-30T05:43:07;103354.53;;;-0.37;100.00
51299;BME280;37382;45.192;9.790;2024-01-30T05:45:35;103355.00;;;-0.49;100.00
51299;BME280;37382;45.192;9.790;2024-01-30T05:48:03;103356.25;;;-0.36;100.00
51299;BME280;37382;45.192;9.790;2024-01-30T05:50:31;103355.72;;;-0.44;100.00
51299;BME280;37382;45.192;9.790;2024-01-30T05:52:59;103362.22;;;-0.51;100.00
51299;BME280;37382;45.192;9.790;2024-01-30T05:55:26;103369.19;;;-0.47;100.00
51299;BME280;37382;45.192;9.790;2024-01-30T05:57:54;103357.22;;;-0.37;100.00
51299;BME280;37382;45.192;9.790;2024-01-30T06:00:21;103353.69;;;-0.39;100.00
51299;BME280;37382;45.192;9.790;2024-01-30T06:02:48;103361.91;;;-0.43;100.00
51299;BME280;37382;45.192;9.790;2024-01-30T06:05:16;103356.88;;;-0.07;100.00
51299;BME280;37382;45.192;9.790;2024-01-30T06:07:44;103360.28;;;-0.47;100.00
51299;BME280;37382;45.192;9.790;2024-01-30T06:10:11;103361.97;;;-0.67;100.00
51299;BME280;37382;45.192;9.790;2024-01-30T06:12:39;103354.19;;;-0.51;100.00
51299;BME280;37382;45.192;9.790;2024-01-30T06:15:07;103359.19;;;-0.42;100.00
51299;BME280;37382;45.192;9.790;2024-01-30T06:17:35;103356.91;;;-0.29;100.00
51299;BME280;37382;45.192;9.790;2024-01-30T06:20:03;103348.84;;;-0.07;100.00
51299;BME280;37382;45.192;9.790;2024-01-30T06:22:31;103355.16;;;-0.30;100.00
51299;BME280;37382;45.192;9.790;2024-01-30T06:24:58;103357.31;;;-0.62;100.00
51299;BME280;37382;45.192;9.790;2024-01-30T06:27:26;103362.09;;;-0.70;100.00
51299;BME280;37382;45.192;9.790;2024-01-30T06:29:54;103367.44;;;-0.70;100.00
51299;BME280;37382;45.192;9.790;2024-01-30T06:32:22;103359.59;;;-0.52;100.00
51299;BME280;37382;45.192;9.790;2024-01-30T06:34:49;103362.66;;;-0.62;100.00
51299;BME280;37382;45.192;9.790;2024-01-30T06:37:16;103369.38;;;-0.51;100.00
51299;BME280;37382;45.192;9.790;2024-01-30T06:39:44;103372.66;;;-0.67;100.00
51299;BME280;37382;45.192;9.790;2024-01-30T06:42:11;103371.88;;;-0.70;100.00
51299;BME280;37382;45.192;9.790;2024-01-30T06:44:39;103381.59;;;-0.92;100.00
51299;BME280;37382;45.192;9.790;2024-01-30T06:47:06;103383.22;;;-0.87;100.00
51299;BME280;37382;45.192;9.790;2024-01-30T06:49:34;103385.19;;;-0.69;100.00
51299;BME280;37382;45.192;9.790;2024-01-30T06:52:02;103378.81;;;-0.43;100.00
51299;BME280;37382;45.192;9.790;2024-01-30T06:54:30;103383.84;;;-0.81;100.00
51299;BME280;37382;45.192;9.790;2024-01-30T06:56:57;103373.34;;;-0.62;100.00
51299;BME280;37382;45.192;9.790;2024-01-30T06:59:24;103381.41;;;-0.63;100.00
51299;BME280;37382;45.192;9.790;2024-01-30T07:01:52;103378.69;;;-0.62;100.00
51299;BME280;37382;45.192;9.790;2024-01-30T07:04:19;103385.84;;;-0.62;100.00
51299;BME280;37382;45.192;9.790;2024-01-30T07:06:47;103381.13;;;-0.56;100.00
51299;BME280;37382;45.192;9.790;2024-01-30T07:09:14;103380.75;;;-0.68;100.00
51299;BME280;37382;45.192;9.790;2024-01-30T07:11:42;103382.56;;;-0.70;100.00
51299;BME280;37382;45.192;9.790;2024-01-30T07:14:09;103383.00;;;-0.81;100.00
51299;BME280;37382;45.192;9.790;2024-01-30T07:16:36;103398.16;;;-0.82;100.00
51299;BME280;37382;45.192;9.790;2024-01-30T07:19:04;103388.94;;;-0.73;100.00
51299;BME280;37382;45.192;9.790;2024-01-30T07:21:31;103398.56;;;-0.69;100.00
51299;BME280;37382;45.192;9.790;2024-01-30T07:23:59;103400.53;;;-0.98;100.00
51299;BME280;37382;45.192;9.790;2024-01-30T07:26:26;103393.78;;;-0.84;100.00
51299;BME280;37382;45.192;9.790;2024-01-30T07:28:54;103405.13;;;-0.78;100.00
51299;BME280;37382;45.192;9.790;2024-01-30T07:31:21;103405.22;;;-0.81;100.00
51299;BME280;37382;45.192;9.790;2024-01-30T07:33:50;103406.09;;;-0.57;100.00
51299;BME280;37382;45.192;9.790;2024-01-30T07:36:19;103413.38;;;-0.60;100.00
51299;BME280;37382;45.192;9.790;2024-01-30T07:38:46;103407.00;;;-0.34;100.00
51299;BME280;37382;45.192;9.790;2024-01-30T07:41:14;103401.72;;;-0.36;100.00
51299;BME280;37382;45.192;9.790;2024-01-30T07:43:43;103410.06;;;-0.43;100.00
51299;BME280;37382;45.192;9.790;2024-01-30T07:46:10;103407.44;;;-0.45;100.00
51299;BME280;37382;45.192;9.790;2024-01-30T07:48:37;103415.59;;;-0.72;100.00
51299;BME280;37382;45.192;9.790;2024-01-30T07:51:05;103415.53;;;-0.46;100.00
51299;BME280;37382;45.192;9.790;2024-01-30T07:53:32;103407.53;;;-0.02;100.00
51299;BME280;37382;45.192;9.790;2024-01-30T07:56:00;103411.19;;;-0.05;100.00
51299;BME280;37382;45.192;9.790;2024-01-30T07:58:29;103417.78;;;-0.36;100.00
51299;BME280;37382;45.192;9.790;2024-01-30T08:00:56;103407.59;;;-0.26;100.00
51299;BME280;37382;45.192;9.790;2024-01-30T08:03:26;103405.84;;;-0.05;100.00
51299;BME280;37382;45.192;9.790;2024-01-30T08:05:53;103404.50;;;-0.15;100.00
51299;BME280;37382;45.192;9.790;2024-01-30T08:08:20;103416.84;;;-0.12;100.00
51299;BME280;37382;45.192;9.790;2024-01-30T08:10:48;103411.44;;;-0.11;100.00
51299;BME280;37382;45.192;9.790;2024-01-30T08:13:16;103409.81;;;-0.37;100.00
51299;BME280;37382;45.192;9.790;2024-01-30T08:15:44;103413.13;;;-0.08;100.00
51299;BME280;37382;45.192;9.790;2024-01-30T08:18:11;103407.66;;;-0.05;100.00
51299;BME280;37382;45.192;9.790;2024-01-30T08:20:39;103414.81;;;-0.06;100.00
51299;BME280;37382;45.192;9.790;2024-01-30T08:23:06;103403.28;;;0.14;100.00
51299;BME280;37382;45.192;9.790;2024-01-30T08:25:34;103417.88;;;-0.15;100.00
51299;BME280;37382;45.192;9.790;2024-01-30T08:28:01;103420.66;;;-0.18;100.00
51299;BME280;37382;45.192;9.790;2024-01-30T08:30:29;103416.91;;;-0.14;100.00
51299;BME280;37382;45.192;9.790;2024-01-30T08:32:56;103428.28;;;-0.31;100.00
51299;BME280;37382;45.192;9.790;2024-01-30T08:35:25;103423.72;;;-0.27;100.00
51299;BME280;37382;45.192;9.790;2024-01-30T08:37:53;103422.19;;;-0.34;100.00
51299;BME280;37382;45.192;9.790;2024-01-30T08:40:22;103420.03;;;-0.03;100.00
51299;BME280;37382;45.192;9.790;2024-01-30T08:42:49;103415.09;;;0.09;100.00
51299;BME280;37382;45.192;9.790;2024-01-30T08:45:17;103422.22;;;0.10;100.00
51299;BME280;37382;45.192;9.790;2024-01-30T08:47:44;103421.75;;;-0.02;100.00
51299;BME280;37382;45.192;9.790;2024-01-30T08:50:12;103419.66;;;-0.15;100.00
51299;BME280;37382;45.192;9.790;2024-01-30T08:52:39;103432.19;;;0.06;100.00
51299;BME280;37382;45.192;9.790;2024-01-30T08:55:07;103439.81;;;-0.29;100.00
51299;BME280;37382;45.192;9.790;2024-01-30T08:57:35;103431.25;;;-0.15;100.00
51299;BME280;37382;45.192;9.790;2024-01-30T09:00:03;103428.53;;;-0.37;100.00
51299;BME280;37382;45.192;9.790;2024-01-30T09:02:33;103426.69;;;-0.13;100.00
51299;BME280;37382;45.192;9.790;2024-01-30T09:05:01;103434.41;;;-0.27;100.00
51299;BME280;37382;45.192;9.790;2024-01-30T09:07:29;103447.41;;;-0.18;100.00
51299;BME280;37382;45.192;9.790;2024-01-30T09:09:56;103446.19;;;0.13;100.00
51299;BME280;37382;45.192;9.790;2024-01-30T09:12:25;103449.16;;;0.05;100.00
51299;BME280;37382;45.192;9.790;2024-01-30T09:14:52;103448.03;;;-0.11;100.00
51299;BME280;37382;45.192;9.790;2024-01-30T09:17:20;103440.50;;;-0.02;100.00
51299;BME280;37382;45.192;9.790;2024-01-30T09:19:47;103446.84;;;0.40;100.00
51299;BME280;37382;45.192;9.790;2024-01-30T09:22:15;103444.22;;;0.39;100.00
51299;BME280;37382;45.192;9.790;2024-01-30T09:24:42;103444.50;;;0.53;100.00
51299;BME280;37382;45.192;9.790;2024-01-30T09:27:11;103437.81;;;0.63;100.00
51299;BME280;37382;45.192;9.790;2024-01-30T09:29:38;103445.94;;;0.82;100.00
51299;BME280;37382;45.192;9.790;2024-01-30T09:32:06;103443.78;;;0.91;100.00
51299;BME280;37382;45.192;9.790;2024-01-30T09:34:34;103442.66;;;0.96;100.00
51299;BME280;37382;45.192;9.790;2024-01-30T09:37:01;103446.56;;;1.08;100.00
51299;BME280;37382;45.192;9.790;2024-01-30T09:39:29;103443.22;;;0.84;100.00
51299;BME280;37382;45.192;9.790;2024-01-30T09:42:11;103451.69;;;1.14;100.00
51299;BME280;37382;45.192;9.790;2024-01-30T09:44:44;103444.09;;;1.43;100.00
51299;BME280;37382;45.192;9.790;2024-01-30T09:47:15;103452.00;;;1.84;100.00
51299;BME280;37382;45.192;9.790;2024-01-30T09:49:43;103447.81;;;1.59;100.00
51299;BME280;37382;45.192;9.790;2024-01-30T09:52:12;103447.31;;;1.70;100.00
51299;BME280;37382;45.192;9.790;2024-01-30T09:54:40;103445.06;;;1.61;100.00
51299;BME280;37382;45.192;9.790;2024-01-30T09:57:11;103448.56;;;1.63;100.00
51299;BME280;37382;45.192;9.790;2024-01-30T09:59:38;103443.31;;;1.41;100.00
51299;BME280;37382;45.192;9.790;2024-01-30T10:02:07;103444.84;;;1.85;100.00
51299;BME280;37382;45.192;9.790;2024-01-30T10:04:34;103445.41;;;2.28;100.00
51299;BME280;37382;45.192;9.790;2024-01-30T10:07:02;103448.09;;;2.10;100.00
51299;BME280;37382;45.192;9.790;2024-01-30T10:09:33;103449.78;;;2.30;100.00
51299;BME280;37382;45.192;9.790;2024-01-30T10:12:02;103443.03;;;2.22;100.00
51299;BME280;37382;45.192;9.790;2024-01-30T10:14:31;103443.81;;;1.87;100.00
51299;BME280;37382;45.192;9.790;2024-01-30T10:16:58;103444.63;;;1.89;100.00
51299;BME280;37382;45.192;9.790;2024-01-30T10:19:26;103441.41;;;2.37;100.00
51299;BME280;37382;45.192;9.790;2024-01-30T10:21:54;103439.41;;;2.40;100.00
51299;BME280;37382;45.192;9.790;2024-01-30T10:24:24;103438.50;;;2.05;100.00
51299;BME280;37382;45.192;9.790;2024-01-30T10:26:55;103437.66;;;2.22;100.00
51299;BME280;37382;45.192;9.790;2024-01-30T10:29:23;103429.44;;;2.25;100.00
51299;BME280;37382;45.192;9.790;2024-01-30T10:32:06;103430.03;;;2.84;100.00
51299;BME280;37382;45.192;9.790;2024-01-30T10:34:34;103432.66;;;2.68;100.00
51299;BME280;37382;45.192;9.790;2024-01-30T10:37:09;103425.84;;;2.61;100.00
51299;BME280;37382;45.192;9.790;2024-01-30T10:39:44;103433.13;;;2.76;100.00
51299;BME280;37382;45.192;9.790;2024-01-30T10:42:14;103418.81;;;2.58;100.00
51299;BME280;37382;45.192;9.790;2024-01-30T10:45:14;103426.84;;;2.93;100.00
51299;BME280;37382;45.192;9.790;2024-01-30T10:47:50;103413.28;;;2.79;100.00
51299;BME280;37382;45.192;9.790;2024-01-30T10:50:18;103407.69;;;2.48;100.00
51299;BME280;37382;45.192;9.790;2024-01-30T10:52:47;103407.25;;;2.74;100.00
51299;BME280;37382;45.192;9.790;2024-01-30T10:55:18;103412.78;;;2.88;100.00
51299;BME280;37382;45.192;9.790;2024-01-30T10:57:45;103404.31;;;2.96;100.00
51299;BME280;37382;45.192;9.790;2024-01-30T11:00:14;103398.81;;;3.15;100.00
51299;BME280;37382;45.192;9.790;2024-01-30T11:02:44;103401.81;;;3.09;100.00
51299;BME280;37382;45.192;9.790;2024-01-30T11:05:13;103401.38;;;3.34;100.00
51299;BME280;37382;45.192;9.790;2024-01-30T11:07:43;103396.91;;;3.17;100.00
51299;BME280;37382;45.192;9.790;2024-01-30T11:10:11;103395.34;;;3.29;100.00
51299;BME280;37382;45.192;9.790;2024-01-30T11:12:42;103402.69;;;2.76;100.00
51299;BME280;37382;45.192;9.790;2024-01-30T11:15:18;103389.78;;;3.32;100.00
51299;BME280;37382;45.192;9.790;2024-01-30T11:22:49;103373.06;;;3.27;100.00
51299;BME280;37382;45.192;9.790;2024-01-30T11:25:18;103368.81;;;3.70;100.00
51299;BME280;37382;45.192;9.790;2024-01-30T11:27:47;103363.25;;;3.42;100.00
51299;BME280;37382;45.192;9.790;2024-01-30T11:30:32;103362.38;;;3.25;100.00
51299;BME280;37382;45.192;9.790;2024-01-30T11:33:14;103356.56;;;3.65;100.00
51299;BME280;37382;45.192;9.790;2024-01-30T11:35:43;103359.53;;;3.60;100.00
51299;BME280;37382;45.192;9.790;2024-01-30T11:38:14;103357.00;;;3.57;100.00
51299;BME280;37382;45.192;9.790;2024-01-30T11:40:43;103344.84;;;3.50;100.00
51299;BME280;37382;45.192;9.790;2024-01-30T11:43:11;103337.47;;;3.69;100.00
51299;BME280;37382;45.192;9.790;2024-01-30T11:45:39;103333.53;;;3.91;100.00
51299;BME280;37382;45.192;9.790;2024-01-30T11:48:08;103332.34;;;3.81;100.00
51299;BME280;37382;45.192;9.790;2024-01-30T11:50:39;103319.16;;;3.60;100.00
51299;BME280;37382;45.192;9.790;2024-01-30T11:53:10;103312.69;;;3.95;100.00
51299;BME280;37382;45.192;9.790;2024-01-30T11:55:37;103303.31;;;4.31;100.00
51299;BME280;37382;45.192;9.790;2024-01-30T11:58:05;103299.88;;;3.98;100.00
51299;BME280;37382;45.192;9.790;2024-01-30T12:00:33;103305.00;;;4.03;100.00
51299;BME280;37382;45.192;9.790;2024-01-30T12:03:02;103311.13;;;3.74;100.00
51299;BME280;37382;45.192;9.790;2024-01-30T12:05:31;103300.34;;;3.44;100.00
51299;BME280;37382;45.192;9.790;2024-01-30T12:07:59;103305.69;;;3.60;100.00
51299;BME280;37382;45.192;9.790;2024-01-30T12:10:28;103289.84;;;3.86;100.00
51299;BME280;37382;45.192;9.790;2024-01-30T12:12:57;103291.16;;;4.09;100.00
51299;BME280;37382;45.192;9.790;2024-01-30T12:15:25;103286.97;;;4.19;100.00
51299;BME280;37382;45.192;9.790;2024-01-30T12:18:04;103279.38;;;3.96;100.00
51299;BME280;37382;45.192;9.790;2024-01-30T12:20:31;103279.59;;;3.46;100.00
51299;BME280;37382;45.192;9.790;2024-01-30T12:22:59;103271.63;;;3.75;100.00
51299;BME280;37382;45.192;9.790;2024-01-30T12:25:26;103268.94;;;3.75;100.00
51299;BME280;37382;45.192;9.790;2024-01-30T12:27:54;103269.59;;;3.16;100.00
51299;BME280;37382;45.192;9.790;2024-01-30T12:30:22;103259.66;;;3.65;100.00
51299;BME280;37382;45.192;9.790;2024-01-30T12:32:50;103258.53;;;3.69;100.00
51299;BME280;37382;45.192;9.790;2024-01-30T12:35:20;103259.44;;;3.53;100.00
51299;BME280;37382;45.192;9.790;2024-01-30T12:37:49;103253.91;;;3.87;100.00
51299;BME280;37382;45.192;9.790;2024-01-30T12:40:17;103246.50;;;4.05;100.00
51299;BME280;37382;45.192;9.790;2024-01-30T12:42:47;103244.16;;;4.43;100.00
51299;BME280;37382;45.192;9.790;2024-01-30T12:45:18;103240.19;;;4.49;100.00
51299;BME280;37382;45.192;9.790;2024-01-30T12:47:50;103241.66;;;3.81;100.00
51299;BME280;37382;45.192;9.790;2024-01-30T12:50:18;103239.88;;;3.96;100.00
51299;BME280;37382;45.192;9.790;2024-01-30T12:52:46;103231.25;;;4.20;100.00
51299;BME280;37382;45.192;9.790;2024-01-30T12:55:17;103227.22;;;4.27;100.00